createdAt,value
2019-06-20T00:01:07.946Z,97760.02
2019-06-20T00:03:40.262Z,97764.48
2019-06-20T00:06:12.306Z,97760.27
2019-06-20T00:08:43.861Z,97755.41
2019-06-20T00:11:15.661Z,97752.98
2019-06-20T00:13:48.195Z,97759.15
2019-06-20T00:16:19.979Z,97757.27
2019-06-20T00:18:52.228Z,97752.32
2019-06-20T00:21:23.995Z,97747.48
2019-06-20T00:23:56.567Z,97739.79
2019-06-20T00:26:28.442Z,97739.88
2019-06-20T00:29:00.471Z,97739.37
2019-06-20T00:31:32.144Z,97738.33
2019-06-20T00:34:03.819Z,97732.48
2019-06-20T00:36:35.409Z,97736.39
2019-06-20T00:39:07.963Z,97744.87
2019-06-20T00:41:39.665Z,97729.91
2019-06-20T00:44:12.426Z,97736.61
2019-06-20T00:46:44.002Z,97731.27
2019-06-20T00:49:16.074Z,97725.20
2019-06-20T00:51:47.882Z,97720.59
2019-06-20T00:54:19.975Z,97719.61
2019-06-20T00:56:51.795Z,97721.55
2019-06-20T00:59:23.622Z,97717.67
2019-06-20T01:01:57.068Z,97712.09
2019-06-20T01:04:28.869Z,97706.34
2019-06-20T01:07:00.934Z,97709.02
2019-06-20T01:09:33.096Z,97719.16
2019-06-20T01:12:07.175Z,97712.66
2019-06-20T01:14:38.809Z,97715.03
2019-06-20T01:17:10.859Z,97721.83
2019-06-20T01:19:42.455Z,97714.59
2019-06-20T01:22:14.071Z,97727.89
2019-06-20T01:24:45.840Z,97715.50
2019-06-20T01:27:18.204Z,97720.36
2019-06-20T01:29:50.155Z,97716.14
2019-06-20T01:32:22.302Z,97715.58
2019-06-20T01:34:54.592Z,97715.49
2019-06-20T01:37:26.979Z,97716.48
2019-06-20T01:39:58.880Z,97710.81
2019-06-20T01:42:30.645Z,97704.48
2019-06-20T01:45:02.230Z,97713.73
2019-06-20T01:47:34.161Z,97711.77
2019-06-20T01:50:07.448Z,97712.19
2019-06-20T01:52:39.215Z,97712.50
2019-06-20T01:55:10.891Z,97722.43
2019-06-20T01:57:42.644Z,97719.76
2019-06-20T02:00:23.624Z,97724.75
2019-06-20T02:02:55.159Z,97724.02
2019-06-20T02:05:28.466Z,97726.47
2019-06-20T02:08:00.364Z,97737.41
2019-06-20T02:10:31.930Z,97735.64
2019-06-20T02:13:03.820Z,97742.18
2019-06-20T02:15:35.530Z,97734.64
2019-06-20T02:18:07.345Z,97737.14
2019-06-20T02:20:41.746Z,97739.97
2019-06-20T02:23:13.434Z,97743.45
2019-06-20T02:25:45.075Z,97745.37
2019-06-20T02:28:16.914Z,97747.27
2019-06-20T02:30:49.611Z,97749.42
2019-06-20T02:33:21.543Z,97749.42
2019-06-20T02:35:53.230Z,97750.34
2019-06-20T02:38:25.400Z,97756.89
2019-06-20T02:40:57.076Z,97754.84
2019-06-20T02:43:28.701Z,97755.94
2019-06-20T02:46:00.520Z,97751.08
2019-06-20T02:48:32.032Z,97748.25
2019-06-20T02:51:04.151Z,97749.16
2019-06-20T02:53:36.275Z,97748.19
2019-06-20T02:56:08.858Z,97747.23
2019-06-20T02:58:40.589Z,97748.25
2019-06-20T03:01:12.628Z,97758.94
2019-06-20T03:03:44.254Z,97758.23
2019-06-20T03:06:15.919Z,97760.42
2019-06-20T03:08:47.878Z,97757.23
2019-06-20T03:11:19.451Z,97757.23
2019-06-20T03:13:51.365Z,97765.25
2019-06-20T03:16:23.231Z,97771.86
2019-06-20T03:18:55.479Z,97772.27
2019-06-20T03:21:27.370Z,97771.62
2019-06-20T03:23:59.230Z,97772.45
2019-06-20T03:26:31.165Z,97774.23
2019-06-20T03:29:02.795Z,97771.09
2019-06-20T03:31:34.438Z,97764.39
2019-06-20T03:34:06.071Z,97779.30
2019-06-20T03:36:37.842Z,97771.70
2019-06-20T03:39:10.233Z,97773.73
2019-06-20T03:41:42.216Z,97784.35
2019-06-20T03:44:15.316Z,97780.63
2019-06-20T03:46:46.933Z,97786.22
2019-06-20T03:49:18.789Z,97786.83
2019-06-20T03:51:51.748Z,97788.07
2019-06-20T03:54:23.925Z,97786.53
2019-06-20T03:56:55.784Z,97786.36
2019-06-20T03:59:27.800Z,97789.20
2019-06-20T04:02:00.124Z,97790.33
2019-06-20T04:04:32.374Z,97792.78
2019-06-20T04:07:04.563Z,97793.90
2019-06-20T04:09:36.240Z,97796.83
2019-06-20T04:12:07.841Z,97794.97
2019-06-20T04:14:39.406Z,97804.09
2019-06-20T04:17:11.201Z,97806.03
2019-06-20T04:19:42.965Z,97801.51
2019-06-20T04:22:16.746Z,97796.64
2019-06-20T04:24:48.530Z,97790.01
2019-06-20T04:27:20.058Z,97790.83
2019-06-20T04:29:53.151Z,97787.33
2019-06-20T04:32:24.785Z,97793.88
2019-06-20T04:34:56.421Z,97797.86
2019-06-20T04:37:28.269Z,97793.73
2019-06-20T04:40:00.318Z,97791.31
2019-06-20T04:42:31.926Z,97796.34
2019-06-20T04:45:10.188Z,97795.62
2019-06-20T04:47:41.961Z,97795.45
2019-06-20T04:50:14.280Z,97796.73
2019-06-20T04:52:46.055Z,97799.15
2019-06-20T04:55:17.610Z,97805.26
2019-06-20T04:57:49.575Z,97809.05
2019-06-20T05:00:21.560Z,97811.63
2019-06-20T05:02:53.710Z,97821.36
2019-06-20T05:05:25.531Z,97817.56
2019-06-20T05:07:58.385Z,97816.49
2019-06-20T05:10:30.297Z,97822.00
2019-06-20T05:13:02.118Z,97825.42
2019-06-20T05:15:33.744Z,97823.81
2019-06-20T05:18:05.638Z,97821.60
2019-06-20T05:20:38.152Z,97815.59
2019-06-20T05:23:10.072Z,97822.59
2019-06-20T05:25:42.006Z,97833.55
2019-06-20T05:28:13.625Z,97825.55
2019-06-20T05:30:45.368Z,97826.63
2019-06-20T05:33:17.233Z,97834.87
2019-06-20T05:35:49.800Z,97834.23
2019-06-20T05:38:21.562Z,97834.83
2019-06-20T05:40:53.398Z,97835.26
2019-06-20T05:43:25.170Z,97840.27
2019-06-20T05:46:09.465Z,97829.08
2019-06-20T05:48:30.251Z,97834.06
2019-06-20T05:51:04.820Z,97834.78
2019-06-20T05:53:36.501Z,97838.20
2019-06-20T05:56:08.742Z,97845.80
2019-06-20T05:58:42.068Z,97837.47
2019-06-20T06:01:13.654Z,97845.11
2019-06-20T06:03:45.469Z,97845.36
2019-06-20T06:06:17.462Z,97847.05
2019-06-20T06:08:49.365Z,97851.44
2019-06-20T06:11:20.945Z,97847.76
2019-06-20T06:13:53.372Z,97856.05
2019-06-20T06:16:27.268Z,97854.91
2019-06-20T06:18:58.891Z,97849.25
2019-06-20T06:21:30.426Z,97856.10
2019-06-20T06:24:02.385Z,97851.89
2019-06-20T06:26:33.991Z,97852.17
2019-06-20T06:29:06.955Z,97852.39
2019-06-20T06:31:38.719Z,97856.25
2019-06-20T06:34:10.303Z,97852.84
2019-06-20T06:36:42.164Z,97850.78
2019-06-20T06:39:14.700Z,97850.52
2019-06-20T06:41:46.434Z,97854.72
2019-06-20T06:44:18.153Z,97850.69
2019-06-20T06:46:55.802Z,97845.86
2019-06-20T06:49:26.491Z,97841.97
2019-06-20T06:51:58.089Z,97849.70
2019-06-20T06:54:30.291Z,97850.05
2019-06-20T06:57:01.827Z,97855.48
2019-06-20T06:59:34.356Z,97854.67
2019-06-20T07:02:06.907Z,97857.80
2019-06-20T07:04:39.165Z,97853.20
2019-06-20T07:07:11.121Z,97861.19
2019-06-20T07:09:45.037Z,97849.39
2019-06-20T07:12:16.910Z,97854.25
2019-06-20T07:14:48.604Z,97854.14
2019-06-20T07:17:20.181Z,97854.73
2019-06-20T07:19:51.867Z,97851.41
2019-06-20T07:22:23.823Z,97845.75
2019-06-20T07:24:55.442Z,97841.48
2019-06-20T07:27:27.176Z,97846.69
2019-06-20T07:29:58.753Z,97842.53
2019-06-20T07:32:30.664Z,97849.46
2019-06-20T07:35:02.402Z,97852.92
2019-06-20T07:37:34.092Z,97847.02
2019-06-20T07:40:06.816Z,97849.91
2019-06-20T07:42:38.829Z,97851.30
2019-06-20T07:45:11.057Z,97863.64
2019-06-20T07:47:43.122Z,97857.84
2019-06-20T07:50:16.718Z,97861.42
2019-06-20T07:53:01.598Z,97865.81
2019-06-20T07:55:22.044Z,97862.66
2019-06-20T07:57:53.936Z,97866.22
2019-06-20T08:00:27.142Z,97870.68
2019-06-20T08:02:58.957Z,97874.94
2019-06-20T08:05:30.635Z,97876.85
2019-06-20T08:08:02.354Z,97881.94
2019-06-20T08:10:36.495Z,97874.16
2019-06-20T08:13:08.501Z,97879.20
2019-06-20T08:15:40.081Z,97878.31
2019-06-20T08:18:13.198Z,97873.80
2019-06-20T08:20:44.966Z,97875.91
2019-06-20T08:23:16.658Z,97880.08
2019-06-20T08:25:48.411Z,97880.47
2019-06-20T08:28:19.977Z,97876.02
2019-06-20T08:30:51.725Z,97877.03
2019-06-20T08:33:23.294Z,97876.52
2019-06-20T08:35:56.923Z,97875.74
2019-06-20T08:38:28.667Z,97871.31
2019-06-20T08:41:00.407Z,97874.84
2019-06-20T08:43:32.309Z,97875.27
2019-06-20T08:46:04.197Z,97876.84
2019-06-20T08:48:38.657Z,97885.33
2019-06-20T08:51:10.722Z,97876.55
2019-06-20T08:53:44.549Z,97880.35
2019-06-20T08:56:16.489Z,97885.02
2019-06-20T08:58:48.046Z,97884.69
2019-06-20T09:01:19.595Z,97886.78
2019-06-20T09:03:51.641Z,97885.09
2019-06-20T09:06:24.473Z,97885.58
2019-06-20T09:08:57.053Z,97881.99
2019-06-20T09:11:29.377Z,97889.02
2019-06-20T09:14:01.508Z,97878.18
2019-06-20T09:16:33.418Z,97882.89
2019-06-20T09:19:06.283Z,97884.08
2019-06-20T09:21:38.073Z,97884.44
2019-06-20T09:24:10.010Z,97890.67
2019-06-20T09:26:41.913Z,97886.89
2019-06-20T09:29:13.534Z,97891.08
2019-06-20T09:31:45.511Z,97885.94
2019-06-20T09:34:17.327Z,97889.00
2019-06-20T09:36:52.009Z,97885.69
2019-06-20T09:39:24.089Z,97884.85
2019-06-20T09:41:56.567Z,97872.80
2019-06-20T09:44:28.364Z,97873.56
2019-06-20T09:47:00.229Z,97874.55
2019-06-20T09:49:32.042Z,97882.19
2019-06-20T09:52:03.527Z,97870.88
2019-06-20T09:54:35.481Z,97867.97
2019-06-20T09:57:07.147Z,97875.39
2019-06-20T09:59:38.757Z,97874.64
2019-06-20T10:02:10.392Z,97867.45
2019-06-20T10:04:42.124Z,97875.23
2019-06-20T10:07:13.802Z,97870.31
2019-06-20T10:09:46.712Z,97869.03
2019-06-20T10:12:18.915Z,97862.83
2019-06-20T10:14:51.564Z,97871.16
2019-06-20T10:17:23.090Z,97863.73
2019-06-20T10:19:56.235Z,97868.78
2019-06-20T10:22:28.047Z,97864.17
2019-06-20T10:24:59.601Z,97860.83
2019-06-20T10:27:31.127Z,97865.08
2019-06-20T10:30:13.971Z,97868.39
2019-06-20T10:32:36.026Z,97870.84
2019-06-20T10:35:07.825Z,97861.20
2019-06-20T10:37:39.926Z,97859.00
2019-06-20T10:40:12.156Z,97864.50
2019-06-20T10:42:44.984Z,97862.24
2019-06-20T10:45:18.420Z,97860.63
2019-06-20T10:47:52.895Z,97860.88
2019-06-20T10:50:25.480Z,97862.09
2019-06-20T10:52:57.084Z,97856.32
2019-06-20T10:55:28.970Z,97850.88
2019-06-20T10:58:00.492Z,97861.31
2019-06-20T11:00:32.586Z,97857.67
2019-06-20T11:03:04.373Z,97859.55
2019-06-20T11:05:36.327Z,97850.69
2019-06-20T11:08:07.949Z,97852.13
2019-06-20T11:10:41.777Z,97857.61
2019-06-20T11:13:13.617Z,97862.94
2019-06-20T11:15:46.219Z,97854.38
2019-06-20T11:18:18.307Z,97847.11
2019-06-20T11:20:50.018Z,97853.44
2019-06-20T11:23:21.820Z,97847.73
2019-06-20T11:25:53.532Z,97838.58
2019-06-20T11:28:25.682Z,97843.37
2019-06-20T11:31:00.475Z,97844.52
2019-06-20T11:33:30.552Z,97836.48
2019-06-20T11:36:02.440Z,97841.02
2019-06-20T11:38:34.700Z,97831.53
2019-06-20T11:41:06.317Z,97831.72
2019-06-20T11:43:38.540Z,97823.72
2019-06-20T11:46:13.089Z,97824.73
2019-06-20T11:48:44.608Z,97825.61
2019-06-20T11:51:16.424Z,97831.78
2019-06-20T11:53:47.973Z,97822.34
2019-06-20T11:56:19.787Z,97815.13
2019-06-20T11:58:51.590Z,97813.02
2019-06-20T12:01:32.473Z,97818.13
2019-06-20T12:03:57.735Z,97821.42
2019-06-20T12:06:29.336Z,97815.36
2019-06-20T12:09:01.470Z,97815.22
2019-06-20T12:11:34.011Z,97815.03
2019-06-20T12:14:05.759Z,97811.01
2019-06-20T12:16:39.075Z,97805.20
2019-06-20T12:19:11.023Z,97808.22
2019-06-20T12:21:43.245Z,97812.94
2019-06-20T12:24:15.071Z,97817.20
2019-06-20T12:26:47.141Z,97808.66
2019-06-20T12:29:18.666Z,97809.41
2019-06-20T12:31:52.838Z,97807.12
2019-06-20T12:34:25.557Z,97802.64
2019-06-20T12:36:58.139Z,97808.91
2019-06-20T12:39:29.635Z,97801.69
2019-06-20T12:42:01.565Z,97794.69
2019-06-20T12:44:33.491Z,97800.01
2019-06-20T12:47:05.574Z,97796.03
2019-06-20T12:49:38.632Z,97792.66
2019-06-20T12:52:10.906Z,97781.16
2019-06-20T12:54:43.295Z,97776.34
2019-06-20T12:57:15.719Z,97766.50
2019-06-20T12:59:48.254Z,97762.69
2019-06-20T13:02:19.999Z,97756.12
2019-06-20T13:04:51.823Z,97755.67
2019-06-20T13:07:23.514Z,97750.92
2019-06-20T13:09:55.570Z,97758.91
2019-06-20T13:12:28.230Z,97754.09
2019-06-20T13:15:00.217Z,97743.49
2019-06-20T13:17:31.861Z,97742.70
2019-06-20T13:20:03.716Z,97742.31
2019-06-20T13:22:35.507Z,97748.37
2019-06-20T13:25:07.853Z,97743.88
2019-06-20T13:27:40.948Z,97750.00
2019-06-20T13:30:14.762Z,97736.78
2019-06-20T13:32:47.194Z,97738.78
2019-06-20T13:35:20.364Z,97741.58
2019-06-20T13:37:53.810Z,97736.45
2019-06-20T13:40:25.775Z,97735.30
2019-06-20T13:42:57.361Z,97727.34
2019-06-20T13:45:29.301Z,97720.48
2019-06-20T13:48:01.199Z,97720.91
2019-06-20T13:50:33.263Z,97723.45
2019-06-20T13:53:06.018Z,97716.56
2019-06-20T13:55:39.402Z,97714.61
2019-06-20T13:58:11.382Z,97704.55
2019-06-20T14:00:45.447Z,97701.74
2019-06-20T14:03:18.233Z,97704.20
2019-06-20T14:05:51.738Z,97700.95
2019-06-20T14:08:23.604Z,97700.95
2019-06-20T14:10:55.471Z,97704.84
2019-06-20T14:13:27.307Z,97702.91
2019-06-20T14:15:59.483Z,97703.72
2019-06-20T14:18:31.688Z,97705.86
2019-06-20T14:21:03.227Z,97707.02
2019-06-20T14:23:34.833Z,97707.59
2019-06-20T14:26:06.611Z,97712.25
2019-06-20T14:28:39.413Z,97721.37
2019-06-20T14:31:10.962Z,97730.61
2019-06-20T14:33:44.184Z,97753.53
2019-06-20T14:36:15.952Z,97753.41
2019-06-20T14:38:47.445Z,97733.84
2019-06-20T14:41:19.110Z,97726.70
2019-06-20T14:43:51.811Z,97726.41
2019-06-20T14:46:23.587Z,97732.44
2019-06-20T14:48:55.488Z,97725.49
2019-06-20T14:51:29.324Z,97730.95
2019-06-20T14:54:00.930Z,97730.47
2019-06-20T14:56:32.683Z,97722.86
2019-06-20T14:59:04.289Z,97713.13
2019-06-20T15:01:36.245Z,97712.15
2019-06-20T15:04:07.820Z,97714.55
2019-06-20T15:06:40.405Z,97707.25
2019-06-20T15:09:11.998Z,97708.07
2019-06-20T15:11:46.484Z,97702.62
2019-06-20T15:14:19.346Z,97697.09
2019-06-20T15:16:51.352Z,97693.05
2019-06-20T15:19:23.246Z,97691.30
2019-06-20T15:21:56.334Z,97692.55
2019-06-20T15:24:29.676Z,97695.45
2019-06-20T15:27:01.628Z,97698.69
2019-06-20T15:29:33.805Z,97694.85
2019-06-20T15:32:06.818Z,97700.55
2019-06-20T15:34:38.449Z,97700.59
2019-06-20T15:37:10.190Z,97693.44
2019-06-20T15:39:42.139Z,97698.66
2019-06-20T15:42:14.402Z,97697.57
2019-06-20T15:44:48.968Z,97688.59
2019-06-20T15:47:21.029Z,97687.68
2019-06-20T15:49:52.725Z,97693.36
2019-06-20T15:52:24.238Z,97696.66
2019-06-20T15:54:56.351Z,97691.63
2019-06-20T15:57:28.173Z,97688.34
2019-06-20T16:00:00.929Z,97695.06
2019-06-20T16:02:32.904Z,97693.50
2019-06-20T16:05:05.789Z,97695.80
2019-06-20T16:07:37.728Z,97693.42
2019-06-20T16:10:09.388Z,97696.61
2019-06-20T16:12:41.180Z,97698.63
2019-06-20T16:15:14.629Z,97700.15
2019-06-20T16:17:46.294Z,97705.97
2019-06-20T16:20:18.781Z,97698.98
2019-06-20T16:22:50.456Z,97704.53
2019-06-20T16:25:22.423Z,97708.34
2019-06-20T16:27:54.327Z,97712.81
2019-06-20T16:30:26.474Z,97710.84
2019-06-20T16:32:58.188Z,97711.70
2019-06-20T16:35:29.956Z,97720.65
2019-06-20T16:38:01.839Z,97728.23
2019-06-20T16:40:42.743Z,97723.97
2019-06-20T16:43:16.001Z,97727.42
2019-06-20T16:45:47.710Z,97729.16
2019-06-20T16:48:19.364Z,97735.39
2019-06-20T16:50:50.943Z,97743.00
2019-06-20T16:53:22.535Z,97747.19
2019-06-20T16:55:54.144Z,97752.80
2019-06-20T16:58:25.914Z,97756.05
2019-06-20T17:00:57.733Z,97760.75
2019-06-20T17:03:41.167Z,97764.64
2019-06-20T17:06:05.173Z,97765.66
2019-06-20T17:08:36.745Z,97771.34
2019-06-20T17:11:08.753Z,97778.26
2019-06-20T17:13:40.854Z,97780.15
2019-06-20T17:16:12.857Z,97790.34
2019-06-20T17:18:44.816Z,97788.31
2019-06-20T17:21:16.437Z,97787.05
2019-06-20T17:23:48.939Z,97789.38
2019-06-20T17:26:20.597Z,97794.10
2019-06-20T17:28:52.985Z,97790.86
2019-06-20T17:31:24.764Z,97793.77
2019-06-20T17:33:58.084Z,97790.07
2019-06-20T17:36:30.671Z,97793.42
2019-06-20T17:39:02.416Z,97799.66
2019-06-20T17:41:35.547Z,97799.55
2019-06-20T17:44:07.526Z,97799.10
2019-06-20T17:46:39.304Z,97802.00
2019-06-20T17:49:10.847Z,97792.55
2019-06-20T17:51:42.812Z,97793.23
2019-06-20T17:54:14.978Z,97798.91
2019-06-20T17:56:46.988Z,97791.61
2019-06-20T17:59:21.732Z,97794.17
2019-06-20T18:01:51.838Z,97788.84
2019-06-20T18:04:26.688Z,97783.30
2019-06-20T18:06:57.433Z,97784.81
2019-06-20T18:09:29.330Z,97788.88
2019-06-20T18:12:01.124Z,97789.63
2019-06-20T18:14:34.199Z,97792.76
2019-06-20T18:17:06.312Z,97800.16
2019-06-20T18:19:38.235Z,97799.22
2019-06-20T18:22:09.883Z,97802.44
2019-06-20T18:24:41.788Z,97805.78
2019-06-20T18:27:13.611Z,97800.94
2019-06-20T18:29:45.340Z,97795.88
2019-06-20T18:32:17.280Z,97797.50
2019-06-20T18:35:01.527Z,97802.55
2019-06-20T18:37:31.480Z,97801.53
2019-06-20T18:39:55.781Z,97805.20
2019-06-20T18:42:27.543Z,97812.81
2019-06-20T18:44:59.078Z,97811.21
2019-06-20T18:47:30.633Z,97820.77
2019-06-20T18:50:02.317Z,97824.34
2019-06-20T18:52:34.064Z,97825.95
2019-06-20T18:55:06.535Z,97823.30
2019-06-20T18:57:38.193Z,97816.25
2019-06-20T19:00:11.324Z,97830.42
2019-06-20T19:02:43.310Z,97832.81
2019-06-20T19:05:15.338Z,97844.92
2019-06-20T19:07:47.100Z,97847.50
2019-06-20T19:10:23.161Z,97852.08
2019-06-20T19:12:55.016Z,97860.81
2019-06-20T19:15:27.273Z,97854.30
2019-06-20T19:17:59.154Z,97862.41
2019-06-20T19:20:30.774Z,97863.36
2019-06-20T19:23:02.473Z,97878.45
2019-06-20T19:25:35.641Z,97878.87
2019-06-20T19:28:07.630Z,97880.80
2019-06-20T19:30:45.763Z,97879.63
2019-06-20T19:33:17.444Z,97880.70
2019-06-20T19:35:49.783Z,97874.26
2019-06-20T19:38:21.833Z,97879.88
2019-06-20T19:40:54.735Z,97887.20
2019-06-20T19:43:26.258Z,97880.13
2019-06-20T19:45:58.295Z,97882.18
2019-06-20T19:48:30.210Z,97886.08
2019-06-20T19:51:01.852Z,97879.63
2019-06-20T19:53:33.781Z,97891.84
2019-06-20T19:56:05.911Z,97888.06
2019-06-20T19:58:37.487Z,97885.45
2019-06-20T20:01:09.383Z,97891.59
2019-06-20T20:03:41.048Z,97889.97
2019-06-20T20:06:12.740Z,97883.73
2019-06-20T20:08:44.647Z,97880.50
2019-06-20T20:11:17.300Z,97879.63
2019-06-20T20:13:49.108Z,97882.39
2019-06-20T20:16:20.909Z,97881.83
2019-06-20T20:18:52.522Z,97878.50
2019-06-20T20:21:24.279Z,97876.05
2019-06-20T20:23:56.012Z,97869.15
2019-06-20T20:26:28.274Z,97863.50
2019-06-20T20:29:00.086Z,97858.08
2019-06-20T20:31:31.612Z,97848.16
2019-06-20T20:34:04.826Z,97839.73
2019-06-20T20:36:37.405Z,97842.84
2019-06-20T20:39:09.019Z,97847.80
2019-06-20T20:41:40.691Z,97849.70
2019-06-20T20:44:12.579Z,97842.39
2019-06-20T20:46:44.132Z,97838.20
2019-06-20T20:49:16.105Z,97839.47
2019-06-20T20:51:47.695Z,97837.73
2019-06-20T20:54:19.726Z,97836.36
2019-06-20T20:56:51.490Z,97838.30
2019-06-20T20:59:23.284Z,97834.83
2019-06-20T21:01:55.184Z,97840.34
2019-06-20T21:04:27.065Z,97842.33
2019-06-20T21:06:58.724Z,97841.55
2019-06-20T21:09:30.618Z,97842.06
2019-06-20T21:12:02.208Z,97837.61
2019-06-20T21:14:33.893Z,97846.02
2019-06-20T21:17:05.984Z,97846.02
2019-06-20T21:19:37.509Z,97840.69
2019-06-20T21:22:09.228Z,97831.12
2019-06-20T21:24:40.768Z,97837.87
2019-06-20T21:27:12.658Z,97831.44
2019-06-20T21:29:44.426Z,97831.22
2019-06-20T21:32:16.242Z,97831.22
2019-06-20T21:34:48.999Z,97833.51
2019-06-20T21:37:21.051Z,97848.09
2019-06-20T21:39:53.063Z,97848.69
2019-06-20T21:42:24.697Z,97848.44
2019-06-20T21:44:57.558Z,97852.02
2019-06-20T21:47:29.291Z,97850.29
2019-06-20T21:50:00.834Z,97849.25
2019-06-20T21:52:32.738Z,97864.38
2019-06-20T21:55:04.976Z,97864.38
2019-06-20T21:57:36.713Z,97870.45
2019-06-20T22:00:14.141Z,97873.06
2019-06-20T22:02:47.787Z,97877.86
2019-06-20T22:05:19.990Z,97886.79
2019-06-20T22:07:52.028Z,97888.98
2019-06-20T22:10:24.267Z,97886.79
2019-06-20T22:12:56.282Z,97887.63
2019-06-20T22:15:28.136Z,97892.87
2019-06-20T22:18:00.847Z,97887.58
2019-06-20T22:20:32.628Z,97883.22
2019-06-20T22:23:04.497Z,97886.45
2019-06-20T22:25:36.161Z,97897.39
2019-06-20T22:28:08.176Z,97898.95
2019-06-20T22:30:53.115Z,97904.94
2019-06-20T22:33:24.917Z,97902.66
2019-06-20T22:35:56.526Z,97904.13
2019-06-20T22:38:28.407Z,97893.64
2019-06-20T22:41:00.267Z,97895.52
2019-06-20T22:43:31.948Z,97885.23
2019-06-20T22:46:04.109Z,97882.70
2019-06-20T22:48:36.026Z,97887.29
2019-06-20T22:51:07.917Z,97879.58
2019-06-20T22:53:39.753Z,97882.56
2019-06-20T22:56:11.554Z,97877.55
2019-06-20T22:58:43.130Z,97874.23
2019-06-20T23:01:14.843Z,97868.78
2019-06-20T23:03:46.844Z,97870.84
2019-06-20T23:06:18.991Z,97858.27
2019-06-20T23:08:51.023Z,97863.95
2019-06-20T23:11:22.597Z,97857.13
2019-06-20T23:13:54.303Z,97861.96
2019-06-20T23:16:26.261Z,97870.14
2019-06-20T23:18:58.707Z,97870.09
2019-06-20T23:21:30.305Z,97868.03
2019-06-20T23:24:02.205Z,97867.73
2019-06-20T23:26:34.438Z,97868.45
2019-06-20T23:29:25.405Z,97867.48
2019-06-20T23:31:57.958Z,97862.30
2019-06-20T23:34:29.451Z,97862.30
2019-06-20T23:37:12.154Z,97865.14
2019-06-20T23:39:35.139Z,97869.27
2019-06-20T23:42:06.743Z,97862.29
2019-06-20T23:44:38.398Z,97854.02
2019-06-20T23:47:10.141Z,97856.26
2019-06-20T23:49:42.168Z,97848.58
2019-06-20T23:52:17.803Z,97850.69
2019-06-20T23:54:50.113Z,97861.27
2019-06-20T23:57:22.186Z,97855.59
2019-06-20T23:59:53.729Z,97862.42
